Terminal Aerodrome Forecast
Issued by NWS

Home | Current Version | Previous Version | Text Only | Print | Product List | Glossary On
Versions: 1 2 3 4 5 6 7 8 9 10 11 12 13 14 15
000
FTUS44 KLIX 251934 AAA
TAFHDC
TAF AMD
KHDC 251934Z 2520/2618 14012KT P6SM BKN035
     FM260200 15006KT P6SM FEW030
     FM261100 VRB03KT P6SM SCT012
     FM261300 VRB03KT P6SM BKN015
     FM261400 15008KT P6SM BKN030=

USA.gov is the U.S. government's official web portal to all federal, state and local government web resources and services.